createdAt,value
2016-12-21T00:00:09.678Z,0
2016-12-21T00:01:09.406Z,0
2016-12-21T00:02:10.027Z,0
2016-12-21T00:03:10.053Z,0
2016-12-21T00:04:10.077Z,0
2016-12-21T00:05:09.497Z,0
2016-12-21T00:06:10.138Z,0
2016-12-21T00:07:09.857Z,0
2016-12-21T00:08:10.494Z,0
2016-12-21T00:09:09.921Z,0
2016-12-21T00:10:10.569Z,0
2016-12-21T00:11:10.278Z,0
2016-12-21T00:12:10.322Z,0
2016-12-21T00:13:10.628Z,0
2016-12-21T00:14:10.361Z,0
2016-12-21T00:15:10.073Z,0
2016-12-21T00:16:10.706Z,0
2016-12-21T00:17:09.831Z,0
2016-12-21T00:18:09.857Z,0
2016-12-21T00:19:10.494Z,0
2016-12-21T00:20:10.521Z,0
2016-12-21T00:21:10.542Z,0
2016-12-21T00:22:10.275Z,0
2016-12-21T00:23:10.291Z,0
2016-12-21T00:24:10.320Z,0
2016-12-21T00:25:10.653Z,0
2016-12-21T00:26:10.075Z,0
2016-12-21T00:27:10.407Z,0
2016-12-21T00:28:10.732Z,0
2016-12-21T00:29:10.160Z,0
2016-12-21T00:30:10.797Z,0
2016-12-21T00:31:10.814Z,0
2016-12-21T00:32:10.846Z,0
2016-12-21T00:33:10.571Z,0
2016-12-21T00:34:10.908Z,0
2016-12-21T00:35:11.025Z,0
2016-12-21T00:36:10.958Z,0
2016-12-21T00:37:10.687Z,0
2016-12-21T00:38:11.016Z,0
2016-12-21T00:39:10.740Z,0
2016-12-21T00:40:10.760Z,0
2016-12-21T00:41:11.389Z,0
2016-12-21T00:42:10.819Z,0
2016-12-21T00:43:10.871Z,0
2016-12-21T00:44:10.864Z,0
2016-12-21T00:45:10.910Z,0
2016-12-21T00:46:10.634Z,0
2016-12-21T00:47:11.263Z,0
2016-12-21T00:48:10.994Z,0
2016-12-21T00:49:11.035Z,0
2016-12-21T00:50:11.332Z,0
2016-12-21T00:51:10.753Z,0
2016-12-21T00:52:11.095Z,0
2016-12-21T00:53:11.411Z,0
2016-12-21T00:54:11.452Z,0
2016-12-21T00:55:11.169Z,0
2016-12-21T00:56:11.201Z,0
2016-12-21T00:57:11.826Z,0
2016-12-21T00:58:11.850Z,0
2016-12-21T00:59:11.567Z,0
2016-12-21T01:00:11.312Z,0
2016-12-21T01:01:11.640Z,0
2016-12-21T01:02:11.050Z,0
2016-12-21T01:03:11.407Z,0
2016-12-21T01:04:12.023Z,0
2016-12-21T01:05:11.439Z,0
2016-12-21T01:06:11.160Z,0
2016-12-21T01:07:11.800Z,0
2016-12-21T01:08:11.512Z,0
2016-12-21T01:09:11.544Z,0
2016-12-21T01:10:11.871Z,0
2016-12-21T01:11:11.903Z,0
2016-12-21T01:12:11.627Z,0
2016-12-21T01:13:11.356Z,0
2016-12-21T01:14:11.989Z,0
2016-12-21T01:15:12.012Z,0
2016-12-21T01:16:11.757Z,0
2016-12-21T01:17:11.446Z,0
2016-12-21T01:18:12.079Z,0
2016-12-21T01:19:12.127Z,0
2016-12-21T01:20:11.845Z,0
2016-12-21T01:21:11.593Z,0
2016-12-21T01:22:12.518Z,0
2016-12-21T01:23:12.227Z,0
2016-12-21T01:24:11.633Z,0
2016-12-21T01:25:11.968Z,0
2016-12-21T01:26:12.008Z,0
2016-12-21T01:27:12.325Z,0
2016-12-21T01:28:12.042Z,0
2016-12-21T01:29:12.086Z,0
2016-12-21T01:30:11.807Z,0
2016-12-21T01:31:12.152Z,0
2016-12-21T01:32:12.164Z,0
2016-12-21T01:33:12.499Z,0
2016-12-21T01:34:11.905Z,0
2016-12-21T01:35:12.244Z,0
2016-12-21T01:36:12.882Z,0
2016-12-21T01:37:12.604Z,0
2016-12-21T01:38:12.329Z,0
2016-12-21T01:39:12.357Z,0
2016-12-21T01:40:12.985Z,0
2016-12-21T01:41:12.398Z,0
2016-12-21T01:42:12.726Z,0
2016-12-21T01:43:12.448Z,0
2016-12-21T01:44:12.519Z,0
2016-12-21T01:45:13.121Z,0
2016-12-21T01:46:12.546Z,0
2016-12-21T01:47:12.567Z,0
2016-12-21T01:48:12.591Z,0
2016-12-21T01:49:12.923Z,0
2016-12-21T01:50:13.260Z,0
2016-12-21T01:51:12.365Z,0
2016-12-21T01:52:12.690Z,0
2016-12-21T01:53:13.031Z,0
2016-12-21T01:54:13.055Z,0
2016-12-21T01:55:12.783Z,0
2016-12-21T01:56:12.812Z,0
2016-12-21T01:57:13.133Z,0
2016-12-21T01:58:13.150Z,0
2016-12-21T01:59:12.883Z,0
2016-12-21T02:00:12.907Z,0
2016-12-21T02:01:12.944Z,0
2016-12-21T02:02:13.265Z,0
2016-12-21T02:03:12.697Z,0
2016-12-21T02:04:13.634Z,0
2016-12-21T02:05:13.355Z,0
2016-12-21T02:06:13.071Z,0
2016-12-21T02:07:13.402Z,0
2016-12-21T02:08:12.813Z,0
2016-12-21T02:09:12.853Z,0
2016-12-21T02:10:12.878Z,0
2016-12-21T02:11:12.899Z,0
2016-12-21T02:12:13.852Z,0
2016-12-21T02:13:13.264Z,0
2016-12-21T02:14:13.889Z,0
2016-12-21T02:15:13.613Z,0
2016-12-21T02:16:13.339Z,0
2016-12-21T02:17:13.063Z,0
2016-12-21T02:18:13.091Z,0
2016-12-21T02:19:13.424Z,0
2016-12-21T02:20:13.756Z,0
2016-12-21T02:21:13.777Z,0
2016-12-21T02:22:13.802Z,0
2016-12-21T02:23:13.827Z,0
2016-12-21T02:24:13.547Z,0
2016-12-21T02:25:13.579Z,0
2016-12-21T02:26:13.908Z,0
2016-12-21T02:27:13.637Z,0
2016-12-21T02:28:14.266Z,0
2016-12-21T02:29:14.015Z,0
2016-12-21T02:30:13.716Z,0
2016-12-21T02:31:13.728Z,0
2016-12-21T02:32:13.772Z,0
2016-12-21T02:33:14.389Z,0
2016-12-21T02:34:13.510Z,0
2016-12-21T02:35:13.859Z,0
2016-12-21T02:36:14.179Z,0
2016-12-21T02:37:13.908Z,0
2016-12-21T02:38:13.973Z,0
2016-12-21T02:39:14.265Z,0
2016-12-21T02:40:14.582Z,0
2016-12-21T02:41:14.306Z,0
2016-12-21T02:42:14.038Z,0
2016-12-21T02:43:13.758Z,0
2016-12-21T02:44:14.700Z,0
2016-12-21T02:45:14.725Z,0
2016-12-21T02:46:14.750Z,0
2016-12-21T02:47:14.782Z,0
2016-12-21T02:48:14.798Z,0
2016-12-21T02:49:14.215Z,0
2016-12-21T02:50:14.580Z,0
2016-12-21T02:51:14.572Z,0
2016-12-21T02:52:14.302Z,0
2016-12-21T02:53:14.630Z,0
2016-12-21T02:54:14.054Z,0
2016-12-21T02:55:14.383Z,0
2016-12-21T02:56:14.395Z,0
2016-12-21T02:57:14.736Z,0
2016-12-21T02:58:14.457Z,0
2016-12-21T02:59:14.497Z,0
2016-12-21T03:00:14.514Z,0
2016-12-21T03:01:14.845Z,0
2016-12-21T03:02:14.572Z,0
2016-12-21T03:03:15.192Z,0
2016-12-21T03:04:14.961Z,0
2016-12-21T03:05:14.950Z,0
2016-12-21T03:06:14.670Z,0
2016-12-21T03:07:14.386Z,0
2016-12-21T03:08:14.736Z,0
2016-12-21T03:09:14.753Z,0
2016-12-21T03:10:15.085Z,0
2016-12-21T03:11:14.805Z,0
2016-12-21T03:12:14.822Z,0
2016-12-21T03:13:15.466Z,0
2016-12-21T03:14:14.582Z,0
2016-12-21T03:15:14.911Z,0
2016-12-21T03:16:14.944Z,0
2016-12-21T03:17:14.965Z,0
2016-12-21T03:18:14.989Z,0
2016-12-21T03:19:15.355Z,0
2016-12-21T03:20:15.334Z,0
2016-12-21T03:21:15.063Z,0
2016-12-21T03:22:15.087Z,0
2016-12-21T03:23:15.416Z,0
2016-12-21T03:24:15.765Z,0
2016-12-21T03:25:15.181Z,0
2016-12-21T03:26:15.537Z,0
2016-12-21T03:27:15.235Z,0
2016-12-21T03:28:14.951Z,0
2016-12-21T03:29:15.271Z,0
2016-12-21T03:30:15.596Z,0
2016-12-21T03:31:15.025Z,0
2016-12-21T03:32:15.661Z,0
2016-12-21T03:33:15.381Z,0
2016-12-21T03:34:15.718Z,0
2016-12-21T03:35:16.039Z,0
2016-12-21T03:36:15.763Z,0
2016-12-21T03:37:15.172Z,0
2016-12-21T03:38:15.824Z,0
2016-12-21T03:39:15.537Z,0
2016-12-21T03:40:15.270Z,0
2016-12-21T03:41:15.606Z,0
2016-12-21T03:42:15.619Z,0
2016-12-21T03:43:15.964Z,0
2016-12-21T03:44:15.673Z,0
2016-12-21T03:45:15.397Z,0
2016-12-21T03:46:15.422Z,0
2016-12-21T03:47:15.446Z,0
2016-12-21T03:48:15.771Z,0
2016-12-21T03:49:16.415Z,0
2016-12-21T03:50:15.836Z,0
2016-12-21T03:51:15.862Z,0
2016-12-21T03:52:16.181Z,0
2016-12-21T03:53:15.602Z,0
2016-12-21T03:54:15.627Z,0
2016-12-21T03:55:15.660Z,0
2016-12-21T03:56:16.288Z,0
2016-12-21T03:57:16.324Z,0
2016-12-21T03:58:16.654Z,0
2016-12-21T03:59:16.080Z,0
2016-12-21T04:00:16.095Z,0
2016-12-21T04:01:16.735Z,0
2016-12-21T04:02:16.137Z,0
2016-12-21T04:03:16.178Z,0
2016-12-21T04:04:16.510Z,0
2016-12-21T04:05:16.538Z,0
2016-12-21T04:06:15.951Z,0
2016-12-21T04:07:16.580Z,0
2016-12-21T04:08:16.609Z,0
2016-12-21T04:09:16.625Z,0
2016-12-21T04:10:16.366Z,0
2016-12-21T04:11:16.394Z,0
2016-12-21T04:12:16.712Z,0
2016-12-21T04:13:16.451Z,0
2016-12-21T04:14:16.769Z,0
2016-12-21T04:15:16.799Z,0
2016-12-21T04:16:16.819Z,0
2016-12-21T04:17:16.231Z,0
2016-12-21T04:18:16.580Z,0
2016-12-21T04:19:16.289Z,0
2016-12-21T04:20:16.926Z,0
2016-12-21T04:21:16.658Z,0
2016-12-21T04:22:16.683Z,0
2016-12-21T04:23:17.316Z,0
2016-12-21T04:24:17.020Z,0
2016-12-21T04:25:17.057Z,0
2016-12-21T04:26:16.778Z,0
2016-12-21T04:27:16.807Z,0
2016-12-21T04:28:17.151Z,0
2016-12-21T04:29:17.172Z,0
2016-12-21T04:30:17.201Z,0
2016-12-21T04:31:17.226Z,0
2016-12-21T04:32:16.982Z,0
2016-12-21T04:33:16.655Z,0
2016-12-21T04:34:16.987Z,0
2016-12-21T04:35:17.328Z,0
2016-12-21T04:36:17.057Z,0
2016-12-21T04:37:16.770Z,0
2016-12-21T04:38:17.406Z,0
2016-12-21T04:39:17.130Z,0
2016-12-21T04:40:17.752Z,0
2016-12-21T04:41:16.876Z,0
2016-12-21T04:42:17.505Z,0
2016-12-21T04:43:16.934Z,0
2016-12-21T04:44:17.275Z,0
2016-12-21T04:45:17.288Z,0
2016-12-21T04:46:17.632Z,0
2016-12-21T04:47:17.326Z,0
2016-12-21T04:48:17.057Z,0
2016-12-21T04:49:17.390Z,0
2016-12-21T04:50:17.111Z,0
2016-12-21T04:51:17.747Z,0
2016-12-21T04:52:17.784Z,0
2016-12-21T04:53:17.198Z,0
2016-12-21T04:54:17.838Z,0
2016-12-21T04:55:18.143Z,0
2016-12-21T04:56:17.579Z,0
2016-12-21T04:57:17.911Z,0
2016-12-21T04:58:17.632Z,0
2016-12-21T04:59:17.357Z,0
2016-12-21T05:00:18.002Z,0
2016-12-21T05:01:17.402Z,0
2016-12-21T05:02:18.032Z,0
2016-12-21T05:03:18.072Z,0
2016-12-21T05:04:17.789Z,0
2016-12-21T05:05:17.517Z,0
2016-12-21T05:06:17.830Z,0
2016-12-21T05:07:17.863Z,0
2016-12-21T05:08:17.887Z,0
2016-12-21T05:09:18.228Z,0
2016-12-21T05:10:18.556Z,0
2016-12-21T05:11:18.269Z,0
2016-12-21T05:12:17.990Z,0
2016-12-21T05:13:18.023Z,0
2016-12-21T05:14:17.739Z,0
2016-12-21T05:15:18.380Z,0
2016-12-21T05:16:18.105Z,0
2016-12-21T05:17:18.130Z,0
2016-12-21T05:18:18.158Z,0
2016-12-21T05:19:18.809Z,0
2016-12-21T05:20:18.212Z,0
2016-12-21T05:21:17.928Z,0
2016-12-21T05:22:18.266Z,0
2016-12-21T05:23:18.278Z,0
2016-12-21T05:24:18.319Z,0
2016-12-21T05:25:18.341Z,0
2016-12-21T05:26:18.361Z,0
2016-12-21T05:27:18.688Z,0
2016-12-21T05:28:18.418Z,0
2016-12-21T05:29:18.755Z,0
2016-12-21T05:30:18.779Z,0
2016-12-21T05:31:18.497Z,0
2016-12-21T05:32:18.830Z,0
2016-12-21T05:33:18.249Z,0
2016-12-21T05:34:18.887Z,0
2016-12-21T05:35:18.287Z,0
2016-12-21T05:36:18.923Z,0
2016-12-21T05:37:18.961Z,0
2016-12-21T05:38:18.689Z,0
2016-12-21T05:39:18.714Z,0
2016-12-21T05:40:19.335Z,0
2016-12-21T05:41:18.494Z,0
2016-12-21T05:42:19.404Z,0
2016-12-21T05:43:19.109Z,0
2016-12-21T05:44:18.869Z,0
2016-12-21T05:45:18.866Z,0
2016-12-21T05:46:19.203Z,0
2016-12-21T05:47:19.224Z,0
2016-12-21T05:48:19.245Z,0
2016-12-21T05:49:19.589Z,0
2016-12-21T05:50:19.302Z,0
2016-12-21T05:51:19.331Z,0
2016-12-21T05:52:19.047Z,0
2016-12-21T05:53:19.081Z,0
2016-12-21T05:54:19.701Z,0
2016-12-21T05:55:19.126Z,0
2016-12-21T05:56:19.459Z,0
2016-12-21T05:57:19.183Z,0
2016-12-21T05:58:19.208Z,0
2016-12-21T05:59:19.557Z,0
2016-12-21T06:00:18.949Z,0
2016-12-21T06:01:19.586Z,0
2016-12-21T06:02:19.302Z,0
2016-12-21T06:03:19.347Z,0
2016-12-21T06:04:19.375Z,0
2016-12-21T06:05:19.389Z,0
2016-12-21T06:06:19.422Z,0
2016-12-21T06:07:19.147Z,0
2016-12-21T06:08:19.783Z,0
2016-12-21T06:09:19.492Z,0
2016-12-21T06:10:19.532Z,0
2016-12-21T06:11:19.545Z,0
2016-12-21T06:12:19.891Z,0
2016-12-21T06:13:19.919Z,0
2016-12-21T06:14:19.636Z,0
2016-12-21T06:15:19.970Z,0
2016-12-21T06:16:19.993Z,0
2016-12-21T06:17:20.325Z,0
2016-12-21T06:18:19.733Z,0
2016-12-21T06:19:20.070Z,0
2016-12-21T06:20:19.492Z,0
2016-12-21T06:21:19.815Z,0
2016-12-21T06:22:20.174Z,0
2016-12-21T06:23:20.225Z,0
2016-12-21T06:24:20.205Z,0
2016-12-21T06:25:19.926Z,0
2016-12-21T06:26:20.566Z,0
2016-12-21T06:27:20.268Z,0
2016-12-21T06:28:19.695Z,0
2016-12-21T06:29:20.020Z,0
2016-12-21T06:30:20.352Z,0
2016-12-21T06:31:20.085Z,0
2016-12-21T06:32:20.106Z,0
2016-12-21T06:33:20.138Z,0
2016-12-21T06:34:19.855Z,0
2016-12-21T06:35:20.188Z,0
2016-12-21T06:36:20.523Z,0
2016-12-21T06:37:20.542Z,0
2016-12-21T06:38:20.266Z,0
2016-12-21T06:39:20.283Z,0
2016-12-21T06:40:20.019Z,0
2016-12-21T06:41:20.665Z,0
2016-12-21T06:42:20.452Z,0
2016-12-21T06:43:21.018Z,0
2016-12-21T06:44:20.734Z,0
2016-12-21T06:45:20.466Z,0
2016-12-21T06:46:20.476Z,0
2016-12-21T06:47:20.504Z,0
2016-12-21T06:48:20.226Z,0
2016-12-21T06:49:20.870Z,0
2016-12-21T06:50:21.194Z,0
2016-12-21T06:51:20.319Z,0
2016-12-21T06:52:20.640Z,0
2016-12-21T06:53:20.669Z,0
2016-12-21T06:54:20.709Z,0
2016-12-21T06:55:20.718Z,0
2016-12-21T06:56:20.742Z,0
2016-12-21T06:57:20.472Z,0
2016-12-21T06:58:20.796Z,0
2016-12-21T06:59:20.824Z,0
2016-12-21T07:00:20.854Z,4
2016-12-21T07:01:21.190Z,4
2016-12-21T07:02:21.543Z,0
2016-12-21T07:03:20.936Z,0
2016-12-21T07:04:21.268Z,0
2016-12-21T07:05:20.982Z,4
2016-12-21T07:06:21.014Z,4
2016-12-21T07:07:20.734Z,4
2016-12-21T07:08:21.367Z,4
2016-12-21T07:09:20.796Z,8
2016-12-21T07:10:20.817Z,8
2016-12-21T07:11:21.147Z,8
2016-12-21T07:12:21.182Z,8
2016-12-21T07:13:21.503Z,8
2016-12-21T07:14:21.228Z,12
2016-12-21T07:15:20.948Z,8
2016-12-21T07:16:21.580Z,12
2016-12-21T07:17:21.301Z,16
2016-12-21T07:18:21.938Z,16
2016-12-21T07:19:21.058Z,16
2016-12-21T07:20:22.007Z,20
2016-12-21T07:21:21.422Z,20
2016-12-21T07:22:21.138Z,24
2016-12-21T07:23:22.074Z,24
2016-12-21T07:24:21.798Z,24
2016-12-21T07:25:21.228Z,28
2016-12-21T07:26:21.852Z,28
2016-12-21T07:27:21.884Z,32
2016-12-21T07:28:21.299Z,32
2016-12-21T07:29:21.933Z,36
2016-12-21T07:30:21.666Z,36
2016-12-21T07:31:21.987Z,40
2016-12-21T07:32:21.716Z,44
2016-12-21T07:33:22.049Z,40
2016-12-21T07:34:21.489Z,48
2016-12-21T07:35:21.786Z,48
2016-12-21T07:36:22.170Z,48
2016-12-21T07:37:22.139Z,48
2016-12-21T07:38:21.868Z,52
2016-12-21T07:39:21.904Z,56
2016-12-21T07:40:22.533Z,60
2016-12-21T07:41:22.263Z,60
2016-12-21T07:42:21.986Z,68
2016-12-21T07:43:22.308Z,72
2016-12-21T07:44:22.652Z,72
2016-12-21T07:45:22.066Z,72
2016-12-21T07:46:22.086Z,76
2016-12-21T07:47:22.111Z,84
2016-12-21T07:48:22.136Z,84
2016-12-21T07:49:22.772Z,80
2016-12-21T07:50:22.493Z,84
2016-12-21T07:51:22.526Z,84
2016-12-21T07:52:22.565Z,84
2016-12-21T07:53:22.276Z,84
2016-12-21T07:54:22.912Z,92
2016-12-21T07:55:22.640Z,96
2016-12-21T07:56:22.973Z,104
2016-12-21T07:57:22.986Z,108
2016-12-21T07:58:22.403Z,112
2016-12-21T07:59:22.736Z,112
2016-12-21T08:00:23.080Z,124
2016-12-21T08:01:23.105Z,136
2016-12-21T08:02:22.518Z,144
2016-12-21T08:03:22.847Z,132
2016-12-21T08:04:23.184Z,128
2016-12-21T08:05:22.904Z,136
2016-12-21T08:06:22.321Z,140
2016-12-21T08:07:22.962Z,148
2016-12-21T08:08:22.679Z,152
2016-12-21T08:09:23.015Z,156
2016-12-21T08:10:22.740Z,152
2016-12-21T08:11:23.361Z,140
2016-12-21T08:12:22.786Z,144
2016-12-21T08:13:23.114Z,160
2016-12-21T08:14:22.843Z,156
2016-12-21T08:15:22.868Z,156
2016-12-21T08:16:23.193Z,152
2016-12-21T08:17:22.934Z,160
2016-12-21T08:18:22.951Z,148
2016-12-21T08:19:22.999Z,148
2016-12-21T08:20:23.312Z,148
2016-12-21T08:21:23.028Z,152
2016-12-21T08:22:22.753Z,160
2016-12-21T08:23:22.774Z,160
2016-12-21T08:24:23.120Z,168
2016-12-21T08:25:23.452Z,172
2016-12-21T08:26:23.164Z,180
2016-12-21T08:27:22.913Z,164
2016-12-21T08:28:23.827Z,172
2016-12-21T08:29:23.567Z,164
2016-12-21T08:30:22.964Z,176
2016-12-21T08:31:23.916Z,164
2016-12-21T08:32:23.337Z,160
2016-12-21T08:33:23.050Z,168
2016-12-21T08:34:23.391Z,176
2016-12-21T08:35:23.108Z,196
2016-12-21T08:36:23.443Z,204
2016-12-21T08:37:23.464Z,204
2016-12-21T08:38:23.785Z,212
2016-12-21T08:39:23.525Z,236
2016-12-21T08:40:23.543Z,248
2016-12-21T08:41:23.602Z,252
2016-12-21T08:42:23.606Z,272
2016-12-21T08:43:23.631Z,292
2016-12-21T08:44:24.264Z,304
2016-12-21T08:45:23.681Z,284
2016-12-21T08:46:23.704Z,296
2016-12-21T08:47:23.725Z,300
2016-12-21T08:48:24.054Z,300
2016-12-21T08:49:24.099Z,316
2016-12-21T08:50:23.812Z,300
2016-12-21T08:51:23.535Z,296
2016-12-21T08:52:23.557Z,320
2016-12-21T08:53:24.534Z,328
2016-12-21T08:54:24.522Z,336
2016-12-21T08:55:24.247Z,336
2016-12-21T08:56:23.664Z,344
2016-12-21T08:57:23.992Z,348
2016-12-21T08:58:23.733Z,336
2016-12-21T08:59:24.057Z,348
2016-12-21T09:00:24.378Z,372
2016-12-21T09:01:23.803Z,388
2016-12-21T09:02:24.435Z,400
2016-12-21T09:03:23.855Z,396
2016-12-21T09:04:24.198Z,388
2016-12-21T09:05:24.525Z,392
2016-12-21T09:06:24.541Z,400
2016-12-21T09:07:24.562Z,436
2016-12-21T09:08:24.888Z,472
2016-12-21T09:09:24.615Z,496
2016-12-21T09:10:24.384Z,484
2016-12-21T09:11:24.681Z,460
2016-12-21T09:12:24.705Z,496
2016-12-21T09:13:24.725Z,516
2016-12-21T09:14:24.147Z,572
2016-12-21T09:15:24.479Z,528
2016-12-21T09:16:24.505Z,548
2016-12-21T09:17:24.537Z,516
2016-12-21T09:18:24.861Z,496
2016-12-21T09:19:24.890Z,560
2016-12-21T09:20:25.232Z,536
2016-12-21T09:21:24.951Z,556
2016-12-21T09:22:24.968Z,580
2016-12-21T09:23:24.716Z,540
2016-12-21T09:24:25.009Z,564
2016-12-21T09:25:24.757Z,584
2016-12-21T09:26:24.478Z,696
2016-12-21T09:27:25.411Z,696
2016-12-21T09:28:25.140Z,620
2016-12-21T09:29:24.862Z,596
2016-12-21T09:30:24.882Z,616
2016-12-21T09:31:24.597Z,576
2016-12-21T09:32:25.534Z,528
2016-12-21T09:33:24.963Z,548
2016-12-21T09:34:25.297Z,556
2016-12-21T09:35:25.624Z,580
2016-12-21T09:36:25.349Z,624
2016-12-21T09:37:25.370Z,600
2016-12-21T09:38:25.085Z,612
2016-12-21T09:39:25.123Z,588
2016-12-21T09:40:25.151Z,640
2016-12-21T09:41:25.168Z,592
2016-12-21T09:42:25.513Z,620
2016-12-21T09:43:25.533Z,640
2016-12-21T09:44:25.590Z,764
2016-12-21T09:45:25.580Z,744
2016-12-21T09:46:25.604Z,672
2016-12-21T09:47:25.341Z,684
2016-12-21T09:48:25.361Z,676
2016-12-21T09:49:26.006Z,672
2016-12-21T09:50:25.111Z,688
2016-12-21T09:51:25.456Z,704
2016-12-21T09:52:25.165Z,740
2016-12-21T09:53:25.806Z,772
2016-12-21T09:54:25.523Z,824
2016-12-21T09:55:25.547Z,816
2016-12-21T09:56:25.572Z,784
2016-12-21T09:57:25.905Z,772
2016-12-21T09:58:25.625Z,736
2016-12-21T09:59:25.966Z,728
2016-12-21T10:00:25.991Z,724
2016-12-21T10:01:26.024Z,696
2016-12-21T10:02:25.421Z,708
2016-12-21T10:03:25.765Z,728
2016-12-21T10:04:25.790Z,740
2016-12-21T10:05:26.132Z,700
2016-12-21T10:06:25.541Z,652
2016-12-21T10:07:25.908Z,692
2016-12-21T10:08:25.897Z,684
2016-12-21T10:09:25.630Z,672
2016-12-21T10:10:25.638Z,680
2016-12-21T10:11:25.975Z,668
2016-12-21T10:12:25.988Z,644
2016-12-21T10:13:25.734Z,652
2016-12-21T10:14:26.089Z,676
2016-12-21T10:15:26.075Z,680
2016-12-21T10:16:26.411Z,708
2016-12-21T10:17:26.136Z,720
2016-12-21T10:18:26.469Z,728
2016-12-21T10:19:26.498Z,732
2016-12-21T10:20:26.214Z,688
2016-12-21T10:21:25.939Z,692
2016-12-21T10:22:26.271Z,704
2016-12-21T10:23:26.597Z,728
2016-12-21T10:24:26.334Z,732
2016-12-21T10:25:26.659Z,788
2016-12-21T10:26:26.388Z,828
2016-12-21T10:27:26.705Z,804
2016-12-21T10:28:26.733Z,756
2016-12-21T10:29:26.154Z,752
2016-12-21T10:30:26.481Z,764
2016-12-21T10:31:26.819Z,744
2016-12-21T10:32:26.845Z,740
2016-12-21T10:33:27.176Z,756
2016-12-21T10:34:26.895Z,784
2016-12-21T10:35:26.912Z,800
2016-12-21T10:36:26.639Z,824
2016-12-21T10:37:27.286Z,808
2016-12-21T10:38:26.701Z,808
2016-12-21T10:39:26.462Z,820
2016-12-21T10:40:26.760Z,792
2016-12-21T10:41:26.784Z,800
2016-12-21T10:42:27.101Z,844
2016-12-21T10:43:26.826Z,768
2016-12-21T10:44:26.850Z,772
2016-12-21T10:45:26.611Z,844
2016-12-21T10:46:26.912Z,916
2016-12-21T10:47:27.245Z,960
2016-12-21T10:48:26.973Z,1080
2016-12-21T10:49:27.603Z,1060
2016-12-21T10:50:26.707Z,956
2016-12-21T10:51:26.732Z,1004
2016-12-21T10:52:26.776Z,1048
2016-12-21T10:53:27.405Z,916
2016-12-21T10:54:27.134Z,856
2016-12-21T10:55:27.171Z,832
2016-12-21T10:56:27.188Z,844
2016-12-21T10:57:27.520Z,852
2016-12-21T10:58:27.524Z,848
2016-12-21T10:59:27.266Z,840
2016-12-21T11:00:26.970Z,824
2016-12-21T11:01:27.007Z,816
2016-12-21T11:02:27.652Z,840
2016-12-21T11:03:27.364Z,808
2016-12-21T11:04:27.389Z,792
2016-12-21T11:05:27.430Z,832
2016-12-21T11:06:27.134Z,884
2016-12-21T11:07:27.160Z,964
2016-12-21T11:08:27.496Z,972
2016-12-21T11:09:27.525Z,1044
2016-12-21T11:10:27.249Z,1028
2016-12-21T11:11:27.578Z,968
2016-12-21T11:12:27.915Z,956
2016-12-21T11:13:27.937Z,1004
2016-12-21T11:14:27.956Z,1052
2016-12-21T11:15:27.682Z,1008
2016-12-21T11:16:27.410Z,984
2016-12-21T11:17:28.041Z,984
2016-12-21T11:18:27.763Z,992
2016-12-21T11:19:27.788Z,1016
2016-12-21T11:20:28.124Z,1020
2016-12-21T11:21:27.841Z,1016
2016-12-21T11:22:28.470Z,972
2016-12-21T11:23:27.890Z,1044
2016-12-21T11:24:27.922Z,1076
2016-12-21T11:25:27.647Z,1008
2016-12-21T11:26:28.276Z,944
2016-12-21T11:27:28.313Z,876
2016-12-21T11:28:28.022Z,832
2016-12-21T11:29:28.070Z,864
2016-12-21T11:30:28.383Z,896
2016-12-21T11:31:27.806Z,944
2016-12-21T11:32:28.130Z,932
2016-12-21T11:33:27.870Z,952
2016-12-21T11:34:28.192Z,936
2016-12-21T11:35:28.223Z,880
2016-12-21T11:36:28.576Z,872
2016-12-21T11:37:28.581Z,952
2016-12-21T11:38:28.285Z,952
2016-12-21T11:39:28.030Z,936
2016-12-21T11:40:28.044Z,924
2016-12-21T11:41:28.068Z,964
2016-12-21T11:42:28.409Z,996
2016-12-21T11:43:29.034Z,956
2016-12-21T11:44:28.767Z,980
2016-12-21T11:45:29.100Z,988
2016-12-21T11:46:28.809Z,972
2016-12-21T11:47:28.833Z,948
2016-12-21T11:48:28.854Z,924
2016-12-21T11:49:28.587Z,908
2016-12-21T11:50:29.224Z,908
2016-12-21T11:51:28.997Z,900
2016-12-21T11:52:28.989Z,836
2016-12-21T11:53:28.690Z,828
2016-12-21T11:54:28.423Z,812
2016-12-21T11:55:28.747Z,832
2016-12-21T11:56:29.086Z,820
2016-12-21T11:57:29.094Z,812
2016-12-21T11:58:29.134Z,816
2016-12-21T11:59:29.471Z,824
2016-12-21T12:00:29.184Z,856
2016-12-21T12:01:28.896Z,884
2016-12-21T12:02:29.533Z,868
2016-12-21T12:03:28.958Z,848
2016-12-21T12:04:29.310Z,804
2016-12-21T12:05:29.326Z,848
2016-12-21T12:06:29.082Z,896
2016-12-21T12:07:28.782Z,904
2016-12-21T12:08:29.414Z,872
2016-12-21T12:09:29.120Z,832
2016-12-21T12:10:29.154Z,780
2016-12-21T12:11:29.113Z,752
2016-12-21T12:12:29.525Z,748
2016-12-21T12:13:29.535Z,792
2016-12-21T12:14:28.959Z,804
2016-12-21T12:15:29.600Z,816
2016-12-21T12:16:29.925Z,824
2016-12-21T12:17:29.329Z,852
2016-12-21T12:18:29.366Z,876
2016-12-21T12:19:29.387Z,892
2016-12-21T12:20:29.727Z,916
2016-12-21T12:21:29.445Z,988
2016-12-21T12:22:29.778Z,992
2016-12-21T12:23:29.211Z,1028
2016-12-21T12:24:29.835Z,1044
2016-12-21T12:25:29.540Z,1000
2016-12-21T12:26:29.576Z,1012
2016-12-21T12:27:29.299Z,1132
2016-12-21T12:28:29.322Z,1216
2016-12-21T12:29:29.967Z,1220
2016-12-21T12:30:30.004Z,1140
2016-12-21T12:31:29.721Z,1036
2016-12-21T12:32:30.342Z,996
2016-12-21T12:33:30.051Z,1076
2016-12-21T12:34:30.091Z,1036
2016-12-21T12:35:30.129Z,1076
2016-12-21T12:36:30.153Z,1012
2016-12-21T12:37:30.177Z,952
2016-12-21T12:38:30.194Z,944
2016-12-21T12:39:30.236Z,1032
2016-12-21T12:40:30.264Z,1088
2016-12-21T12:41:30.280Z,976
2016-12-21T12:42:30.005Z,960
2016-12-21T12:43:30.642Z,948
2016-12-21T12:44:30.359Z,924
2016-12-21T12:45:30.392Z,960
2016-12-21T12:46:30.124Z,948
2016-12-21T12:47:30.141Z,932
2016-12-21T12:48:30.158Z,948
2016-12-21T12:49:30.187Z,972
2016-12-21T12:50:30.515Z,1032
2016-12-21T12:51:30.852Z,988
2016-12-21T12:52:30.275Z,992
2016-12-21T12:53:30.298Z,1008
2016-12-21T12:54:30.627Z,928
2016-12-21T12:55:30.347Z,904
2016-12-21T12:56:30.676Z,888
2016-12-21T12:57:30.407Z,856
2016-12-21T12:58:30.149Z,848
2016-12-21T12:59:30.761Z,880
2016-12-21T13:00:31.087Z,940
2016-12-21T13:01:30.817Z,896
2016-12-21T13:02:30.232Z,864
2016-12-21T13:03:30.882Z,824
2016-12-21T13:04:30.582Z,780
2016-12-21T13:05:30.302Z,740
2016-12-21T13:06:30.935Z,736
2016-12-21T13:07:30.669Z,700
2016-12-21T13:08:30.997Z,660
2016-12-21T13:09:31.026Z,628
2016-12-21T13:10:31.051Z,588
2016-12-21T13:11:30.468Z,584
2016-12-21T13:12:30.788Z,596
2016-12-21T13:13:30.834Z,588
2016-12-21T13:14:31.150Z,556
2016-12-21T13:15:31.192Z,504
2016-12-21T13:16:30.904Z,560
2016-12-21T13:17:30.644Z,548
2016-12-21T13:18:31.264Z,488
2016-12-21T13:19:31.293Z,472
2016-12-21T13:20:31.006Z,432
2016-12-21T13:21:31.058Z,404
2016-12-21T13:22:30.763Z,400
2016-12-21T13:23:31.404Z,416
2016-12-21T13:24:31.129Z,476
2016-12-21T13:25:31.766Z,504
2016-12-21T13:26:30.866Z,552
2016-12-21T13:27:31.194Z,564
2016-12-21T13:28:30.924Z,552
2016-12-21T13:29:31.261Z,532
2016-12-21T13:30:31.285Z,508
2016-12-21T13:31:31.617Z,512
2016-12-21T13:32:31.340Z,484
2016-12-21T13:33:31.659Z,468
2016-12-21T13:34:31.725Z,480
2016-12-21T13:35:31.717Z,492
2016-12-21T13:36:32.046Z,496
2016-12-21T13:37:31.474Z,468
2016-12-21T13:38:31.499Z,476
2016-12-21T13:39:31.832Z,536
2016-12-21T13:40:32.156Z,552
2016-12-21T13:41:32.189Z,528
2016-12-21T13:42:31.898Z,548
2016-12-21T13:43:31.630Z,632
2016-12-21T13:44:31.651Z,600
2016-12-21T13:45:31.684Z,544
2016-12-21T13:46:31.716Z,564
2016-12-21T13:47:31.738Z,584
2016-12-21T13:48:31.771Z,572
2016-12-21T13:49:32.399Z,544
2016-12-21T13:50:31.502Z,480
2016-12-21T13:51:31.828Z,432
2016-12-21T13:52:32.178Z,432
2016-12-21T13:53:32.197Z,432
2016-12-21T13:54:32.222Z,420
2016-12-21T13:55:32.558Z,436
2016-12-21T13:56:32.299Z,460
2016-12-21T13:57:32.299Z,444
2016-12-21T13:58:31.712Z,420
2016-12-21T13:59:32.048Z,392
2016-12-21T14:00:32.385Z,372
2016-12-21T14:01:32.414Z,340
2016-12-21T14:02:32.134Z,340
2016-12-21T14:03:32.151Z,356
2016-12-21T14:04:32.496Z,364
2016-12-21T14:05:32.808Z,356
2016-12-21T14:06:32.227Z,356
2016-12-21T14:07:32.248Z,348
2016-12-21T14:08:32.297Z,344
2016-12-21T14:09:32.327Z,356
2016-12-21T14:10:32.367Z,368
2016-12-21T14:11:32.063Z,344
2016-12-21T14:12:32.699Z,308
2016-12-21T14:13:32.725Z,292
2016-12-21T14:14:32.445Z,304
2016-12-21T14:15:32.461Z,304
2016-12-21T14:16:32.514Z,272